createdAt,value
2018-12-25T00:00:58.137Z,1.77
2018-12-25T00:03:26.329Z,1.30
2018-12-25T00:05:54.566Z,1.70
2018-12-25T00:08:22.768Z,1.70
2018-12-25T00:10:50.988Z,1.67
2018-12-25T00:13:19.186Z,1.70
2018-12-25T00:15:47.407Z,1.80
2018-12-25T00:18:15.617Z,1.83
2018-12-25T00:20:43.841Z,1.83
2018-12-25T00:23:12.039Z,1.83
2018-12-25T00:25:40.264Z,1.87
2018-12-25T00:28:08.472Z,1.70
2018-12-25T00:30:36.709Z,1.77
2018-12-25T00:33:05.004Z,2.10
2018-12-25T00:35:33.199Z,1.70
2018-12-25T00:38:01.446Z,2.17
2018-12-25T00:40:29.648Z,1.90
2018-12-25T00:42:57.842Z,1.30
2018-12-25T00:45:26.078Z,2.03
2018-12-25T00:47:54.280Z,1.77
2018-12-25T00:50:22.520Z,2.00
2018-12-25T00:52:50.742Z,1.70
2018-12-25T00:55:18.926Z,1.90
2018-12-25T00:57:47.149Z,1.87
2018-12-25T01:00:15.358Z,1.77
2018-12-25T01:02:43.568Z,1.63
2018-12-25T01:05:11.788Z,1.83
2018-12-25T01:07:40.008Z,2.10
2018-12-25T01:10:08.256Z,1.90
2018-12-25T01:12:36.445Z,1.70
2018-12-25T01:15:04.860Z,1.73
2018-12-25T01:17:33.063Z,1.77
2018-12-25T01:20:01.380Z,1.67
2018-12-25T01:22:29.655Z,1.57
2018-12-25T01:24:57.859Z,2.10
2018-12-25T01:27:26.087Z,1.70
2018-12-25T01:29:54.310Z,1.77
2018-12-25T01:32:22.511Z,1.70
2018-12-25T01:34:50.711Z,1.60
2018-12-25T01:37:18.928Z,2.40
2018-12-25T01:39:47.151Z,1.50
2018-12-25T01:42:15.352Z,1.90
2018-12-25T01:44:43.642Z,1.83
2018-12-25T01:47:11.866Z,1.60
2018-12-25T01:49:40.097Z,1.70
2018-12-25T01:52:08.292Z,1.57
2018-12-25T01:54:36.488Z,1.80
2018-12-25T01:57:04.716Z,1.83
2018-12-25T01:59:32.926Z,1.80
2018-12-25T02:02:01.159Z,2.20
2018-12-25T02:04:29.362Z,2.03
2018-12-25T02:06:57.650Z,2.07
2018-12-25T02:09:25.882Z,2.10
2018-12-25T02:11:54.074Z,1.80
2018-12-25T02:14:22.305Z,1.80
2018-12-25T02:16:50.513Z,2.10
2018-12-25T02:19:18.713Z,2.00
2018-12-25T02:21:46.942Z,2.00
2018-12-25T02:24:15.186Z,2.00
2018-12-25T02:26:43.400Z,1.80
2018-12-25T02:29:11.622Z,1.60
2018-12-25T02:31:39.819Z,1.77
2018-12-25T02:34:08.040Z,1.73
2018-12-25T02:36:36.245Z,1.70
2018-12-25T02:39:06.919Z,2.03
2018-12-25T02:41:35.116Z,1.77
2018-12-25T02:44:03.346Z,1.90
2018-12-25T02:46:31.572Z,1.97
2018-12-25T02:48:59.767Z,2.07
2018-12-25T02:51:27.990Z,2.13
2018-12-25T02:53:56.184Z,1.93
2018-12-25T02:56:24.399Z,2.00
2018-12-25T02:58:52.610Z,1.80
2018-12-25T03:01:20.804Z,1.93
2018-12-25T03:03:49.021Z,1.90
2018-12-25T03:06:17.266Z,1.90
2018-12-25T03:08:45.491Z,1.80
2018-12-25T03:11:13.712Z,1.93
2018-12-25T03:13:41.899Z,1.90
2018-12-25T03:16:10.122Z,1.80
2018-12-25T03:18:38.316Z,2.30
2018-12-25T03:21:06.540Z,1.97
2018-12-25T03:23:34.751Z,1.90
2018-12-25T03:26:02.954Z,2.03
2018-12-25T03:28:31.172Z,1.77
2018-12-25T03:30:59.416Z,1.90
2018-12-25T03:33:27.623Z,1.57
2018-12-25T03:35:55.875Z,2.10
2018-12-25T03:38:24.229Z,1.87
2018-12-25T03:40:52.374Z,2.00
2018-12-25T03:43:20.596Z,1.73
2018-12-25T03:45:48.813Z,2.20
2018-12-25T03:48:17.038Z,2.13
2018-12-25T03:50:45.230Z,2.10
2018-12-25T03:53:13.474Z,2.13
2018-12-25T03:55:41.658Z,1.73
2018-12-25T03:58:09.878Z,1.90
2018-12-25T04:00:38.089Z,1.90
2018-12-25T04:03:06.312Z,2.03
2018-12-25T04:05:34.514Z,1.87
2018-12-25T04:08:02.714Z,2.00
2018-12-25T04:10:30.946Z,1.90
2018-12-25T04:12:59.148Z,1.90
2018-12-25T04:15:27.526Z,1.90
2018-12-25T04:17:55.736Z,1.90
2018-12-25T04:20:23.968Z,2.03
2018-12-25T04:22:52.162Z,2.20
2018-12-25T04:25:20.370Z,2.00
2018-12-25T04:27:48.569Z,2.13
2018-12-25T04:30:16.802Z,1.87
2018-12-25T04:32:45.008Z,2.10
2018-12-25T04:35:13.221Z,2.20
2018-12-25T04:37:41.433Z,2.13
2018-12-25T04:40:09.638Z,2.00
2018-12-25T04:42:37.826Z,2.17
2018-12-25T04:45:06.055Z,2.17
2018-12-25T04:47:34.240Z,2.27
2018-12-25T04:50:02.467Z,2.00
2018-12-25T04:52:30.684Z,2.07
2018-12-25T04:54:58.890Z,1.87
2018-12-25T04:57:27.106Z,2.10
2018-12-25T04:59:55.299Z,2.07
2018-12-25T05:02:23.531Z,1.87
2018-12-25T05:04:51.719Z,1.63
2018-12-25T05:07:19.936Z,2.03
2018-12-25T05:09:48.158Z,1.90
2018-12-25T05:12:16.362Z,1.87
2018-12-25T05:14:44.575Z,2.00
2018-12-25T05:17:12.781Z,2.00
2018-12-25T05:19:41.009Z,1.90
2018-12-25T05:22:09.219Z,1.80
2018-12-25T05:24:37.461Z,1.87
2018-12-25T05:27:05.666Z,1.80
2018-12-25T05:29:33.878Z,1.90
2018-12-25T05:32:02.076Z,1.73
2018-12-25T05:34:30.292Z,1.70
2018-12-25T05:36:58.495Z,1.80
2018-12-25T05:39:26.749Z,1.90
2018-12-25T05:41:54.946Z,1.90
2018-12-25T05:44:23.159Z,1.83
2018-12-25T05:46:51.374Z,2.00
2018-12-25T05:49:19.598Z,2.07
2018-12-25T05:51:47.792Z,1.93
2018-12-25T05:54:16.012Z,1.80
2018-12-25T05:56:44.231Z,2.00
2018-12-25T05:59:12.535Z,1.90
2018-12-25T06:01:40.692Z,2.33
2018-12-25T06:04:08.900Z,1.80
2018-12-25T06:06:37.138Z,2.10
2018-12-25T06:09:06.670Z,1.83
2018-12-25T06:11:34.878Z,2.00
2018-12-25T06:14:03.084Z,2.20
2018-12-25T06:16:31.308Z,1.83
2018-12-25T06:18:59.501Z,1.60
2018-12-25T06:21:27.738Z,1.93
2018-12-25T06:23:55.939Z,1.77
2018-12-25T06:26:24.142Z,1.80
2018-12-25T06:28:52.361Z,1.70
2018-12-25T06:31:21.517Z,1.90
2018-12-25T06:33:49.785Z,2.00
2018-12-25T06:36:17.999Z,2.20
2018-12-25T06:38:46.205Z,1.83
2018-12-25T06:41:14.435Z,1.67
2018-12-25T06:43:42.669Z,2.03
2018-12-25T06:46:10.880Z,1.80
2018-12-25T06:48:39.106Z,2.00
2018-12-25T06:51:07.312Z,1.80
2018-12-25T06:53:35.544Z,1.80
2018-12-25T06:56:03.749Z,2.03
2018-12-25T06:58:31.985Z,1.77
2018-12-25T07:01:00.189Z,1.73
2018-12-25T07:03:28.415Z,2.13
2018-12-25T07:05:56.665Z,1.80
2018-12-25T07:08:24.865Z,1.87
2018-12-25T07:10:53.062Z,1.87
2018-12-25T07:13:21.271Z,1.70
2018-12-25T07:15:49.502Z,1.90
2018-12-25T07:18:17.705Z,1.90
2018-12-25T07:20:45.951Z,1.83
2018-12-25T07:23:14.150Z,1.87
2018-12-25T07:25:42.366Z,2.00
2018-12-25T07:28:10.556Z,1.73
2018-12-25T07:30:38.870Z,1.80
2018-12-25T07:33:07.063Z,1.77
2018-12-25T07:35:35.304Z,1.80
2018-12-25T07:38:03.502Z,1.90
2018-12-25T07:40:31.752Z,1.63
2018-12-25T07:42:59.954Z,1.77
2018-12-25T07:45:28.180Z,1.93
2018-12-25T07:47:56.379Z,1.67
2018-12-25T07:50:24.589Z,2.03
2018-12-25T07:52:52.804Z,2.00
2018-12-25T07:55:21.030Z,1.80
2018-12-25T07:57:49.228Z,1.97
2018-12-25T08:00:19.541Z,1.93
2018-12-25T08:02:47.402Z,1.80
2018-12-25T08:05:15.602Z,1.90
2018-12-25T08:07:43.830Z,1.80
2018-12-25T08:10:12.040Z,1.70
2018-12-25T08:12:40.262Z,2.03
2018-12-25T08:15:08.462Z,1.80
2018-12-25T08:17:36.675Z,1.97
2018-12-25T08:20:06.318Z,2.10
2018-12-25T08:22:34.534Z,1.80
2018-12-25T08:25:02.729Z,2.30
2018-12-25T08:27:30.940Z,1.90
2018-12-25T08:29:59.162Z,2.00
2018-12-25T08:32:27.350Z,1.80
2018-12-25T08:34:55.572Z,2.03
2018-12-25T08:37:23.794Z,2.13
2018-12-25T08:39:52.113Z,2.03
2018-12-25T08:42:20.403Z,2.03
2018-12-25T08:44:48.598Z,1.93
2018-12-25T08:47:16.800Z,1.90
2018-12-25T08:49:45.021Z,2.23
2018-12-25T08:52:13.225Z,1.97
2018-12-25T08:54:41.455Z,1.77
2018-12-25T08:57:09.701Z,2.20
2018-12-25T08:59:37.904Z,1.83
2018-12-25T09:02:06.138Z,1.90
2018-12-25T09:04:34.344Z,1.93
2018-12-25T09:07:02.552Z,1.77
2018-12-25T09:09:30.771Z,2.10
2018-12-25T09:11:58.990Z,1.77
2018-12-25T09:14:27.188Z,1.70
2018-12-25T09:16:55.496Z,1.83
2018-12-25T09:19:23.728Z,2.10
2018-12-25T09:21:51.950Z,2.03
2018-12-25T09:24:20.152Z,1.63
2018-12-25T09:26:48.408Z,1.63
2018-12-25T09:29:16.602Z,1.60
2018-12-25T09:31:44.800Z,1.93
2018-12-25T09:34:13.051Z,2.00
2018-12-25T09:36:41.252Z,1.70
2018-12-25T09:39:09.481Z,1.70
2018-12-25T09:41:37.690Z,1.80
2018-12-25T09:44:05.878Z,1.90
2018-12-25T09:49:01.644Z,2.03
2018-12-25T09:51:29.868Z,1.80
2018-12-25T09:53:58.077Z,1.90
2018-12-25T09:56:26.306Z,1.90
2018-12-25T09:58:54.496Z,1.60
2018-12-25T10:01:22.800Z,1.60
2018-12-25T10:03:51.018Z,1.47
2018-12-25T10:06:19.250Z,1.83
2018-12-25T10:08:47.456Z,2.00
2018-12-25T10:11:15.692Z,1.90
2018-12-25T10:13:43.910Z,1.90
2018-12-25T10:16:12.121Z,1.80
2018-12-25T10:18:40.354Z,1.63
2018-12-25T10:21:08.569Z,1.90
2018-12-25T10:23:36.784Z,1.77
2018-12-25T10:26:05.019Z,1.60
2018-12-25T10:28:33.295Z,1.70
2018-12-25T10:31:01.515Z,1.60
2018-12-25T10:33:29.746Z,1.73
2018-12-25T10:35:58.032Z,1.73
2018-12-25T10:38:26.246Z,1.57
2018-12-25T10:40:54.469Z,1.63
2018-12-25T10:43:22.701Z,1.60
2018-12-25T10:45:50.920Z,1.60
2018-12-25T10:48:19.167Z,1.60
2018-12-25T10:50:47.355Z,1.80
2018-12-25T10:53:15.575Z,2.00
2018-12-25T10:55:43.790Z,1.70
2018-12-25T10:58:11.986Z,1.77
2018-12-25T11:00:42.361Z,1.53
2018-12-25T11:03:10.596Z,1.60
2018-12-25T11:05:38.805Z,1.70
2018-12-25T11:08:07.033Z,1.90
2018-12-25T11:10:35.247Z,1.70
2018-12-25T11:13:03.470Z,1.70
2018-12-25T11:15:31.704Z,1.80
2018-12-25T11:17:59.921Z,1.60
2018-12-25T11:20:29.204Z,2.10
2018-12-25T11:22:57.437Z,1.60
2018-12-25T11:25:25.658Z,1.80
2018-12-25T11:27:53.869Z,1.60
2018-12-25T11:30:22.061Z,1.60
2018-12-25T11:32:50.267Z,2.07
2018-12-25T11:35:18.471Z,1.80
2018-12-25T11:37:46.691Z,1.70
2018-12-25T11:40:14.883Z,1.80
2018-12-25T11:42:43.111Z,1.53
2018-12-25T11:45:11.333Z,1.70
2018-12-25T11:47:39.533Z,1.60
2018-12-25T11:50:07.764Z,1.60
2018-12-25T11:52:35.960Z,1.90
2018-12-25T11:55:04.207Z,1.60
2018-12-25T11:57:32.432Z,1.83
2018-12-25T12:00:00.655Z,1.80
2018-12-25T12:02:28.863Z,1.53
2018-12-25T12:04:57.080Z,2.43
2018-12-25T12:07:25.285Z,1.53
2018-12-25T12:09:53.500Z,1.40
2018-12-25T12:12:21.742Z,1.77
2018-12-25T12:14:49.924Z,1.80
2018-12-25T12:17:18.139Z,1.90
2018-12-25T12:19:46.371Z,1.60
2018-12-25T12:22:14.581Z,2.10
2018-12-25T12:24:42.805Z,2.00
2018-12-25T12:27:11.020Z,1.50
2018-12-25T12:29:39.251Z,2.00
2018-12-25T12:32:07.471Z,1.50
2018-12-25T12:34:35.705Z,1.60
2018-12-25T12:37:03.901Z,2.00
2018-12-25T12:39:32.157Z,1.80
2018-12-25T12:42:00.355Z,1.87
2018-12-25T12:44:28.571Z,1.80
2018-12-25T12:46:56.797Z,1.90
2018-12-25T12:49:25.000Z,1.87
2018-12-25T12:51:53.217Z,1.77
2018-12-25T12:54:21.397Z,2.00
2018-12-25T12:56:49.627Z,1.60
2018-12-25T12:59:17.863Z,1.80
2018-12-25T14:13:05.155Z,1.50
2018-12-25T14:15:33.354Z,1.87
2018-12-25T14:18:01.583Z,2.00
2018-12-25T14:20:29.804Z,1.73
2018-12-25T14:22:58.030Z,1.80
2018-12-25T14:25:26.240Z,1.40
2018-12-25T14:27:54.462Z,1.80
2018-12-25T14:30:22.696Z,1.70
2018-12-25T14:32:50.908Z,1.67
2018-12-25T14:35:19.107Z,1.40
2018-12-25T17:57:01.537Z,1.67
2018-12-25T18:51:08.008Z,2.00
2018-12-25T18:53:36.228Z,2.10
2018-12-25T18:56:04.451Z,2.02
2018-12-25T18:58:32.664Z,2.12
2018-12-25T19:01:00.926Z,2.08
2018-12-25T19:03:29.133Z,2.40
2018-12-25T19:05:57.356Z,2.25
2018-12-25T19:08:25.556Z,2.17
2018-12-25T19:10:53.780Z,2.60
2018-12-25T19:13:22.027Z,2.10
2018-12-25T19:15:50.234Z,2.05
2018-12-25T19:18:18.458Z,2.20
2018-12-25T19:20:46.670Z,2.30
2018-12-25T19:23:14.894Z,2.40
2018-12-25T19:25:43.106Z,2.20
2018-12-25T19:28:11.348Z,2.40
2018-12-25T19:30:39.560Z,2.53
2018-12-25T19:33:07.776Z,2.33
2018-12-25T19:35:36.007Z,2.40
2018-12-25T19:38:04.244Z,2.45
2018-12-25T19:40:32.461Z,2.60
2018-12-25T19:43:00.680Z,2.47
2018-12-25T19:45:29.226Z,2.42
2018-12-25T19:47:57.470Z,2.20
2018-12-25T19:50:25.674Z,2.60
2018-12-25T19:52:53.892Z,2.77
2018-12-25T19:55:22.115Z,2.45
2018-12-25T19:57:50.336Z,2.60
2018-12-25T20:00:18.547Z,2.60
2018-12-25T20:02:47.921Z,2.73
2018-12-25T20:05:19.414Z,2.77
2018-12-25T20:08:05.860Z,2.72
2018-12-25T20:10:46.620Z,2.95
2018-12-25T20:13:35.076Z,2.87
2018-12-25T20:16:32.308Z,2.70
2018-12-25T20:19:09.369Z,3.10
2018-12-25T20:21:40.822Z,2.83
2018-12-25T20:24:20.862Z,2.77
2018-12-25T20:27:10.450Z,2.47
2018-12-25T20:30:00.321Z,3.00
2018-12-25T20:32:55.879Z,3.05
2018-12-25T20:35:44.348Z,3.10
2018-12-25T20:38:30.639Z,3.02
2018-12-25T20:41:13.947Z,3.30
2018-12-25T20:44:04.420Z,3.35
2018-12-25T20:46:54.902Z,3.12
2018-12-25T20:49:38.419Z,3.20
2018-12-25T20:52:32.531Z,3.10
2018-12-25T20:55:10.057Z,3.25
2018-12-25T20:58:07.040Z,3.40
2018-12-25T21:00:56.658Z,3.57
2018-12-25T21:03:42.996Z,2.67
2018-12-25T21:06:36.755Z,3.37
2018-12-25T21:09:35.416Z,3.57
2018-12-25T21:12:18.374Z,3.40
2018-12-25T21:15:16.596Z,3.00
2018-12-25T21:17:56.412Z,3.50
2018-12-25T21:20:44.436Z,3.27
2018-12-25T21:23:49.260Z,3.50
2018-12-25T21:26:53.840Z,3.40
2018-12-25T21:29:22.168Z,3.70
2018-12-25T21:31:50.400Z,3.20
2018-12-25T21:34:18.626Z,3.50
2018-12-25T21:36:49.623Z,3.43
2018-12-25T21:39:17.872Z,3.43
2018-12-25T21:41:46.058Z,3.83
2018-12-25T21:44:14.291Z,3.63
2018-12-25T21:46:42.496Z,3.70
2018-12-25T21:49:11.650Z,3.73
2018-12-25T21:51:39.888Z,3.27
2018-12-25T21:54:08.112Z,3.73
2018-12-25T21:56:36.308Z,3.83
2018-12-25T21:59:04.541Z,3.77
2018-12-25T22:01:32.758Z,4.07
2018-12-25T22:04:01.006Z,3.67
2018-12-25T22:06:29.211Z,3.83
2018-12-25T22:08:57.439Z,3.90
2018-12-25T22:11:25.656Z,4.10
2018-12-25T22:13:53.872Z,3.73
2018-12-25T22:16:22.254Z,4.00
2018-12-25T22:18:50.647Z,3.70
2018-12-25T22:21:18.890Z,3.53
2018-12-25T22:23:47.086Z,3.90
2018-12-25T22:26:15.321Z,3.03
2018-12-25T22:28:43.547Z,3.93
2018-12-25T22:31:11.849Z,4.03
2018-12-25T22:33:40.067Z,3.87
2018-12-25T22:36:08.276Z,4.00
2018-12-25T22:38:36.512Z,3.77
2018-12-25T22:41:04.719Z,4.27
2018-12-25T22:43:32.939Z,3.83
2018-12-25T22:46:01.138Z,3.63
2018-12-25T22:48:29.368Z,4.30
2018-12-25T22:50:57.557Z,4.13
2018-12-25T22:53:25.776Z,4.10
2018-12-25T22:55:54.010Z,3.70
2018-12-25T22:58:22.235Z,4.07
2018-12-25T23:00:50.465Z,4.13
2018-12-25T23:03:18.670Z,4.03
2018-12-25T23:05:46.896Z,4.23
2018-12-25T23:08:15.102Z,4.23
2018-12-25T23:10:43.336Z,3.73
2018-12-25T23:13:11.546Z,4.03
2018-12-25T23:15:39.760Z,4.27
2018-12-25T23:18:08.009Z,4.30
2018-12-25T23:20:36.207Z,4.23
2018-12-25T23:23:04.400Z,3.80
2018-12-25T23:25:32.619Z,4.17
2018-12-25T23:28:00.858Z,4.07
2018-12-25T23:30:29.092Z,4.00
2018-12-25T23:32:57.316Z,4.40
2018-12-25T23:35:25.558Z,4.37
2018-12-25T23:37:53.759Z,3.93
2018-12-25T23:40:21.998Z,3.97
2018-12-25T23:42:50.203Z,4.30
2018-12-25T23:45:18.433Z,4.27
2018-12-25T23:47:46.617Z,4.23
2018-12-25T23:50:14.839Z,4.37
2018-12-25T23:52:43.077Z,4.23
2018-12-25T23:55:11.279Z,4.20
2018-12-25T23:57:39.514Z,4.03
